createdAt,value
2023-04-24T00:00:25.267Z,0.93
2023-04-24T00:02:57.915Z,0.80
2023-04-24T00:05:47.288Z,0.70
2023-04-24T00:08:14.544Z,1.10
2023-04-24T00:10:45.230Z,0.75
2023-04-24T00:13:24.043Z,0.90
2023-04-24T00:15:58.474Z,1.08
2023-04-24T00:18:40.987Z,0.90
2023-04-24T00:21:15.947Z,0.70
2023-04-24T00:23:46.877Z,0.90
2023-04-24T00:26:15.909Z,1.23
2023-04-24T00:28:44.137Z,1.05
2023-04-24T00:31:15.056Z,1.13
2023-04-24T00:33:45.828Z,1.20
2023-04-24T00:36:14.019Z,1.05
2023-04-24T00:38:43.790Z,1.10
2023-04-24T00:41:13.549Z,1.10
2023-04-24T00:43:41.412Z,1.20
2023-04-24T00:48:50.059Z,1.30
2023-04-24T00:51:22.283Z,1.20
2023-04-24T00:56:34.227Z,1.30
2023-04-24T00:59:02.143Z,1.17
2023-04-24T01:01:32.502Z,1.13
2023-04-24T01:04:00.950Z,1.27
2023-04-24T01:06:37.798Z,1.17
2023-04-24T01:09:06.315Z,1.13
2023-04-24T01:11:33.589Z,1.30
2023-04-24T01:14:03.410Z,1.10
2023-04-24T01:16:30.586Z,1.02
2023-04-24T01:21:41.677Z,1.00
2023-04-24T01:24:13.752Z,0.90
2023-04-24T01:26:41.143Z,1.02
2023-04-24T01:29:08.654Z,1.10
2023-04-24T01:31:37.808Z,1.00
2023-04-24T01:34:13.121Z,1.10
2023-04-24T01:36:41.716Z,0.90
2023-04-24T01:39:14.582Z,1.13
2023-04-24T01:41:41.980Z,1.02
2023-04-24T01:44:09.310Z,1.20
2023-04-24T01:46:38.203Z,0.90
2023-04-24T01:49:06.182Z,1.00
2023-04-24T01:51:33.135Z,0.88
2023-04-24T01:54:00.428Z,1.00
2023-04-24T01:56:31.923Z,0.90
2023-04-24T01:59:01.478Z,1.00
2023-04-24T02:01:36.286Z,1.13
2023-04-24T02:04:03.953Z,1.10
2023-04-24T02:06:33.448Z,0.90
2023-04-24T02:09:04.570Z,1.33
2023-04-24T02:11:32.992Z,1.27
2023-04-24T02:14:04.836Z,1.60
2023-04-24T02:16:34.685Z,1.42
2023-04-24T02:19:02.160Z,0.97
2023-04-24T02:21:32.112Z,1.00
2023-04-24T02:24:02.126Z,1.23
2023-04-24T02:26:34.833Z,1.02
2023-04-24T02:29:03.165Z,0.95
2023-04-24T02:31:30.062Z,1.25
2023-04-24T02:34:02.244Z,1.17
2023-04-24T02:36:36.806Z,1.30
2023-04-24T02:39:06.388Z,1.35
2023-04-24T02:41:35.781Z,1.00
2023-04-24T02:44:03.739Z,0.98
2023-04-24T02:46:38.266Z,1.20
2023-04-24T02:49:06.865Z,1.25
2023-04-24T02:54:16.689Z,0.77
2023-04-24T02:56:48.102Z,0.90
2023-04-24T02:59:24.999Z,0.82
2023-04-24T03:01:52.138Z,0.80
2023-04-24T03:04:21.992Z,0.80
2023-04-24T03:06:54.677Z,1.08
2023-04-24T03:09:23.087Z,1.08
2023-04-24T03:11:50.609Z,1.00
2023-04-24T03:14:18.110Z,0.85
2023-04-24T03:16:45.676Z,0.73
2023-04-24T03:19:12.995Z,1.08
2023-04-24T03:21:44.437Z,0.85
2023-04-24T03:24:18.868Z,1.05
2023-04-24T03:26:46.855Z,0.80
2023-04-24T03:29:16.358Z,0.77
2023-04-24T03:31:45.297Z,0.80
2023-04-24T03:34:12.231Z,1.05
2023-04-24T03:36:39.185Z,0.80
2023-04-24T03:39:11.729Z,0.85
2023-04-24T03:41:40.704Z,0.90
2023-04-24T03:44:28.205Z,1.05
2023-04-24T03:46:55.572Z,1.02
2023-04-24T03:49:23.189Z,1.10
2023-04-24T03:51:52.255Z,0.70
2023-04-24T03:54:24.402Z,0.85
2023-04-24T03:59:36.672Z,1.00
2023-04-24T04:02:04.460Z,0.80
2023-04-24T04:04:36.154Z,0.80
2023-04-24T04:07:12.185Z,0.82
2023-04-24T04:09:39.361Z,1.13
2023-04-24T04:12:06.578Z,0.90
2023-04-24T04:14:35.962Z,1.23
2023-04-24T04:17:03.401Z,1.08
2023-04-24T04:19:41.539Z,0.80
2023-04-24T04:22:10.210Z,0.82
2023-04-24T04:24:39.284Z,0.98
2023-04-24T04:27:13.616Z,1.33
2023-04-24T04:30:06.310Z,1.50
2023-04-24T04:32:44.707Z,1.13
2023-04-24T04:35:12.039Z,1.40
2023-04-24T04:37:42.298Z,1.30
2023-04-24T04:42:59.183Z,1.33
2023-04-24T04:45:37.342Z,1.40
2023-04-24T04:53:42.732Z,1.90
2023-04-24T04:58:58.472Z,1.60
2023-04-24T05:01:29.512Z,1.40
2023-04-24T05:03:57.642Z,1.65
2023-04-24T05:07:33.484Z,1.95
2023-04-24T05:10:06.036Z,1.85
2023-04-24T05:12:33.153Z,1.58
2023-04-24T05:15:09.429Z,1.88
2023-04-24T05:17:46.303Z,2.50
2023-04-24T05:20:31.372Z,2.10
2023-04-24T05:23:13.167Z,1.98
2023-04-24T05:25:56.833Z,2.17
2023-04-24T05:28:24.100Z,3.10
2023-04-24T05:30:59.174Z,2.20
2023-04-24T05:33:29.976Z,2.70
2023-04-24T05:35:58.093Z,2.50
2023-04-24T05:38:27.889Z,2.20
2023-04-24T05:40:58.912Z,2.35
2023-04-24T05:43:31.739Z,2.40
2023-04-24T05:51:55.508Z,2.50
2023-04-24T05:54:22.722Z,2.70
2023-04-24T05:56:55.736Z,2.80
2023-04-24T05:59:30.836Z,2.70
2023-04-24T06:02:11.163Z,2.78
2023-04-24T06:04:56.378Z,2.63
2023-04-24T06:07:27.976Z,2.63
2023-04-24T06:09:59.255Z,2.60
2023-04-24T06:15:35.167Z,2.78
2023-04-24T06:18:10.972Z,2.70
2023-04-24T06:20:45.110Z,2.40
2023-04-24T06:23:44.191Z,2.40
2023-04-24T06:26:34.237Z,2.80
2023-04-24T06:31:51.941Z,3.22
2023-04-24T06:40:42.941Z,2.83
2023-04-24T06:43:38.239Z,3.17
2023-04-24T06:46:14.494Z,3.08
2023-04-24T06:52:03.074Z,3.20
2023-04-24T06:57:08.148Z,3.33
2023-04-24T06:59:41.500Z,3.25
2023-04-24T07:05:14.082Z,2.80
2023-04-24T07:07:59.025Z,3.30
2023-04-24T07:19:02.805Z,3.15
2023-04-24T07:37:43.173Z,3.08
2023-04-24T07:40:23.501Z,2.90
2023-04-24T07:54:26.084Z,3.10
2023-04-24T07:59:43.079Z,3.00
2023-04-24T08:02:20.483Z,3.15
2023-04-24T08:05:01.120Z,3.20
2023-04-24T08:13:13.881Z,3.17
2023-04-24T08:15:53.699Z,3.10
2023-04-24T08:24:22.215Z,2.70
2023-04-24T08:26:58.447Z,3.08
2023-04-24T08:29:29.540Z,3.00
2023-04-24T08:35:20.112Z,2.67
2023-04-24T08:38:54.250Z,2.25
2023-04-24T08:44:21.320Z,2.67
2023-04-24T08:47:04.654Z,3.10
2023-04-24T08:52:18.213Z,2.83
2023-04-24T08:55:07.799Z,2.75
2023-04-24T08:57:52.987Z,2.88
2023-04-24T09:00:35.666Z,3.10
2023-04-24T09:11:43.750Z,3.00
2023-04-24T10:12:00.427Z,2.15
2023-04-24T10:20:20.485Z,2.20
2023-04-24T10:25:48.632Z,2.25
2023-04-24T10:28:26.904Z,2.47
2023-04-24T10:31:05.544Z,2.30
2023-04-24T10:33:39.108Z,2.10
2023-04-24T10:38:54.204Z,3.20
2023-04-24T10:41:32.193Z,3.63
2023-04-24T10:47:04.003Z,3.97
2023-04-24T10:49:50.884Z,3.83
2023-04-24T10:52:20.924Z,3.70
2023-04-24T10:54:51.878Z,3.20
2023-04-24T10:57:37.972Z,3.35
2023-04-24T11:00:24.338Z,2.83
2023-04-24T11:06:28.920Z,2.95
2023-04-24T11:09:17.912Z,2.10
2023-04-24T11:41:36.857Z,1.73
2023-04-24T12:11:41.004Z,2.45
2023-04-24T12:19:56.513Z,1.60
2023-04-24T12:22:31.643Z,2.30
2023-04-24T12:31:01.716Z,2.55
2023-04-24T12:33:30.544Z,2.72
2023-04-24T12:38:52.812Z,3.05
2023-04-24T12:41:25.103Z,2.38
2023-04-24T12:44:02.709Z,2.42
2023-04-24T12:46:33.143Z,3.08
2023-04-24T12:49:28.984Z,3.30
2023-04-24T12:52:03.114Z,3.30
2023-04-24T13:09:52.108Z,4.40
2023-04-24T13:12:41.684Z,4.20
2023-04-24T13:23:47.314Z,4.43
2023-04-24T13:29:27.080Z,3.88
2023-04-24T13:35:22.621Z,3.47
2023-04-24T13:49:29.337Z,3.33
2023-04-24T13:55:18.573Z,3.28
2023-04-24T14:00:50.398Z,3.92
2023-04-24T14:06:13.277Z,3.60
2023-04-24T14:08:44.772Z,3.53
2023-04-24T14:11:20.418Z,3.55
2023-04-24T14:14:01.319Z,3.55
2023-04-24T14:16:31.845Z,3.10
2023-04-24T14:21:32.634Z,3.33
2023-04-24T14:26:44.098Z,3.47
2023-04-24T14:29:17.195Z,3.95
2023-04-24T14:31:48.752Z,3.47
2023-04-24T14:34:23.056Z,3.42
2023-04-24T14:39:36.661Z,3.17
2023-04-24T14:42:14.379Z,3.70
2023-04-24T14:44:53.413Z,3.70
2023-04-24T14:47:24.441Z,3.58
2023-04-24T14:49:52.135Z,4.20
2023-04-24T14:52:32.247Z,3.95
2023-04-24T14:55:12.485Z,3.72
2023-04-24T15:00:57.922Z,4.20
2023-04-24T15:04:06.353Z,3.85
2023-04-24T15:09:26.981Z,3.58
2023-04-24T15:11:55.243Z,3.80
2023-04-24T15:14:23.177Z,3.72
2023-04-24T15:19:56.205Z,3.72
2023-04-24T15:22:28.405Z,3.63
2023-04-24T15:41:57.652Z,3.00
2023-04-24T15:44:32.364Z,3.30
2023-04-24T15:47:06.953Z,3.60
2023-04-24T15:49:36.050Z,3.97
2023-04-24T15:54:55.203Z,3.78
2023-04-24T15:57:24.927Z,3.58
2023-04-24T16:02:43.716Z,4.03
2023-04-24T16:07:56.837Z,3.35
2023-04-24T16:16:00.363Z,3.47
2023-04-24T16:18:33.628Z,3.70
2023-04-24T16:21:21.042Z,3.75
2023-04-24T16:23:52.521Z,4.00
2023-04-24T16:32:19.637Z,3.63
2023-04-24T16:37:51.101Z,4.05
2023-04-24T16:40:27.311Z,3.90
2023-04-24T16:43:08.053Z,3.63
2023-04-24T16:45:39.925Z,3.83
2023-04-24T16:48:20.144Z,3.50
2023-04-24T16:50:48.348Z,3.38
2023-04-24T16:53:29.215Z,3.70
2023-04-24T16:55:58.743Z,3.58
2023-04-24T17:01:17.021Z,3.53
2023-04-24T17:06:45.518Z,4.15
2023-04-24T17:09:25.645Z,3.72
2023-04-24T17:12:04.501Z,4.43
2023-04-24T17:14:39.707Z,4.10
2023-04-24T17:17:20.981Z,3.72
2023-04-24T17:22:39.510Z,3.40
2023-04-24T17:25:30.673Z,3.50
2023-04-24T17:28:07.031Z,3.42
2023-04-24T17:36:44.702Z,3.60
2023-04-24T19:36:52.736Z,4.28
2023-04-24T19:47:45.311Z,4.45
2023-04-24T19:50:44.990Z,4.15
2023-04-24T19:53:37.461Z,3.95
2023-04-24T20:08:15.339Z,4.03
2023-04-24T20:11:26.537Z,4.65
2023-04-24T20:40:00.412Z,4.60
2023-04-24T20:42:39.150Z,4.43
2023-04-24T20:45:38.803Z,4.85
2023-04-24T20:51:27.116Z,5.38
2023-04-24T20:53:55.637Z,5.57
2023-04-24T21:04:46.652Z,5.75
2023-04-24T21:10:08.088Z,6.18
2023-04-24T21:12:36.607Z,5.53
2023-04-24T21:15:24.095Z,6.18
2023-04-24T21:21:46.300Z,6.47
2023-04-24T21:24:13.778Z,6.38
2023-04-24T21:29:22.303Z,7.40
2023-04-24T21:31:52.242Z,7.43
2023-04-24T21:34:30.829Z,7.80
2023-04-24T21:37:08.380Z,8.13
2023-04-24T21:39:53.357Z,8.35
2023-04-24T21:42:23.868Z,7.70
2023-04-24T21:44:57.779Z,7.80
2023-04-24T21:50:19.215Z,8.40
2023-04-24T21:52:51.338Z,8.52
2023-04-24T21:55:31.447Z,7.90
2023-04-24T21:58:09.024Z,8.27
2023-04-24T22:00:38.615Z,9.00
2023-04-24T22:03:20.988Z,8.13
2023-04-24T22:05:51.433Z,8.30
2023-04-24T22:08:20.429Z,8.38
2023-04-24T22:10:57.972Z,7.53
2023-04-24T22:13:28.197Z,7.50
2023-04-24T22:15:56.875Z,8.75
2023-04-24T22:18:53.981Z,8.57
2023-04-24T22:21:25.096Z,8.65
2023-04-24T22:23:55.506Z,9.60
2023-04-24T22:29:13.380Z,8.85
2023-04-24T22:31:49.479Z,9.55
2023-04-24T22:37:13.678Z,10.43
2023-04-24T22:39:40.448Z,11.07
2023-04-24T22:42:07.209Z,10.75
2023-04-24T22:44:34.679Z,11.63
2023-04-24T22:47:10.230Z,12.20
2023-04-24T22:49:48.546Z,12.00
2023-04-24T22:52:20.561Z,12.30
2023-04-24T22:55:01.032Z,13.18
2023-04-24T22:57:37.699Z,11.80
2023-04-24T23:00:12.405Z,12.82
2023-04-24T23:02:52.905Z,12.88
2023-04-24T23:05:26.597Z,12.27
2023-04-24T23:07:54.632Z,13.18
2023-04-24T23:10:39.245Z,12.75
2023-04-24T23:13:09.868Z,12.75
2023-04-24T23:15:39.813Z,12.52
2023-04-24T23:18:12.940Z,12.63
2023-04-24T23:20:48.057Z,11.40
2023-04-24T23:23:22.857Z,11.77
2023-04-24T23:25:55.003Z,11.32
2023-04-24T23:31:14.557Z,11.45
2023-04-24T23:34:08.702Z,11.25
2023-04-24T23:42:24.521Z,11.40
2023-04-24T23:45:00.570Z,9.15
2023-04-24T23:50:12.872Z,11.63
2023-04-24T23:52:46.583Z,11.30
2023-04-24T23:58:05.843Z,11.65
